Time;durP1;ratioP1;P1;durP2;ratioP2;P2;SDS_P1;SDS_P2;PMS_P1;PMS_P2;Temp;Humidity;BMP_temperature;BMP_pressure;BME280_temperature;BME280_humidity;BME280_pressure;Samples;Min_cycle;Max_cycle;Signal;HPM_P1;HPM_P2
2022/04/16 00:03:25;;;;;;;10.15;5.97;;;;;;;6.29;100.00;103343.09;10193527;28;20635;-65
2022/04/16 00:08:23;;;;;;;14.05;7.45;;;;;;;6.24;100.00;103345.66;10205841;28;20626;-65
2022/04/16 00:13:21;;;;;;;13.80;6.72;;;;;;;6.06;100.00;103355.44;10202796;28;20127;-65
2022/04/16 00:18:18;;;;;;;11.98;6.70;;;;;;;6.09;100.00;103356.88;10201549;28;20307;-65
2022/04/16 00:23:15;;;;;;;10.55;5.80;;;;;;;6.03;100.00;103358.56;10210306;28;20399;-65
2022/04/16 00:28:12;;;;;;;10.45;5.63;;;;;;;5.77;100.00;103362.31;10221505;28;20645;-65
2022/04/16 00:33:10;;;;;;;11.75;5.35;;;;;;;5.74;100.00;103356.50;10216396;28;20758;-65
2022/04/16 00:38:07;;;;;;;10.23;5.07;;;;;;;5.69;100.00;103360.72;10194145;28;20042;-62
2022/04/16 00:43:05;;;;;;;11.13;4.28;;;;;;;5.65;100.00;103359.47;10205288;28;20108;-64
2022/04/16 00:48:01;;;;;;;10.50;4.95;;;;;;;5.59;100.00;103365.81;10196357;28;20104;-64
2022/04/16 00:52:58;;;;;;;8.18;4.55;;;;;;;5.51;100.00;103367.94;10211171;28;20470;-64
2022/04/16 00:57:55;;;;;;;11.48;4.53;;;;;;;5.43;100.00;103377.16;10194306;28;20141;-65
2022/04/16 01:02:51;;;;;;;10.00;5.07;;;;;;;5.33;100.00;103376.81;10209819;28;20399;-65
2022/04/16 01:07:53;;;;;;;8.63;4.50;;;;;;;5.21;100.00;103384.81;10228932;28;20050;-63
2022/04/16 01:12:50;;;;;;;10.43;5.00;;;;;;;5.15;100.00;103375.66;10196506;28;20037;-65
2022/04/16 01:17:47;;;;;;;12.75;5.07;;;;;;;5.09;100.00;103383.84;10216372;28;20064;-65
2022/04/16 01:22:46;;;;;;;11.40;5.50;;;;;;;5.03;100.00;103382.78;10163888;28;20046;-63
2022/04/16 01:27:46;;;;;;;11.90;5.22;;;;;;;4.92;100.00;103386.16;10212588;28;20088;-65
2022/04/16 01:32:42;;;;;;;10.70;4.93;;;;;;;4.78;100.00;103402.50;10202024;28;20198;-64
2022/04/16 01:37:39;;;;;;;10.30;4.70;;;;;;;4.68;100.00;103407.53;10223518;28;20136;-66
2022/04/16 01:42:36;;;;;;;8.18;4.43;;;;;;;4.62;100.00;103420.06;10196697;28;20034;-63
2022/04/16 01:47:36;;;;;;;7.88;4.43;;;;;;;4.56;100.00;103412.75;10217871;28;20153;-63
2022/04/16 01:52:35;;;;;;;8.20;4.63;;;;;;;4.42;100.00;103414.66;10195450;28;20111;-64
2022/04/16 01:57:31;;;;;;;11.52;4.72;;;;;;;4.43;100.00;103421.75;10208040;28;20046;-66
2022/04/16 02:02:28;;;;;;;12.63;4.82;;;;;;;4.33;100.00;103418.63;10156839;28;20050;-66
2022/04/16 02:07:24;;;;;;;11.27;5.38;;;;;;;4.31;100.00;103426.13;10202931;28;20064;-62
2022/04/16 02:12:21;;;;;;;7.85;4.38;;;;;;;4.28;100.00;103421.13;10194300;28;20078;-63
2022/04/16 02:17:17;;;;;;;9.57;4.28;;;;;;;4.18;100.00;103412.59;10227674;28;20085;-63
2022/04/16 02:22:15;;;;;;;9.57;3.75;;;;;;;4.09;100.00;103419.25;10207070;28;20634;-64
2022/04/16 02:27:13;;;;;;;7.15;3.95;;;;;;;4.05;100.00;103412.59;10194075;28;20239;-65
2022/04/16 02:32:09;;;;;;;6.07;3.40;;;;;;;4.02;100.00;103421.13;10153477;28;20462;-66
2022/04/16 02:37:06;;;;;;;7.07;3.40;;;;;;;3.93;100.00;103421.34;10211346;28;20128;-65
2022/04/16 02:42:02;;;;;;;10.18;3.55;;;;;;;3.85;100.00;103432.34;10197384;28;20473;-65
2022/04/16 02:47:08;;;;;;;8.07;3.72;;;;;;;3.82;100.00;103445.47;10213192;28;20466;-64
2022/04/16 02:52:06;;;;;;;6.35;2.80;;;;;;;3.70;100.00;103437.13;10225415;28;20060;-65
2022/04/16 02:57:03;;;;;;;5.70;3.03;;;;;;;3.67;100.00;103448.38;10224139;28;20068;-63
2022/04/16 03:01:59;;;;;;;8.65;3.17;;;;;;;3.63;100.00;103442.50;10208391;28;20049;-63
2022/04/16 03:06:56;;;;;;;6.72;2.78;;;;;;;3.58;100.00;103445.81;10219468;28;20103;-64
2022/04/16 03:11:53;;;;;;;7.03;2.92;;;;;;;3.53;100.00;103464.53;10191318;28;20077;-64
2022/04/16 03:22:04;;;;;;;6.70;2.50;;;;;;;3.38;100.00;103466.56;10191934;28;20099;-65
2022/04/16 03:27:01;;;;;;;5.38;2.60;;;;;;;3.37;100.00;103468.44;10208941;28;20144;-65
2022/04/16 03:31:57;;;;;;;7.32;2.95;;;;;;;3.31;100.00;103460.28;10231891;28;20534;-65
2022/04/16 03:36:54;;;;;;;6.30;2.40;;;;;;;3.23;100.00;103468.59;10221483;28;20127;-64
2022/04/16 03:41:51;;;;;;;6.43;3.08;;;;;;;3.21;100.00;103459.84;10197214;28;20057;-65
2022/04/16 03:46:47;;;;;;;4.55;2.33;;;;;;;3.14;100.00;103454.41;10220209;28;20503;-64
2022/04/16 03:51:44;;;;;;;7.55;2.72;;;;;;;3.14;100.00;103460.63;10189420;28;20042;-64
2022/04/16 04:01:55;;;;;;;8.57;2.45;;;;;;;3.04;100.00;103471.00;10187929;28;20092;-65
2022/04/16 04:06:52;;;;;;;6.95;2.63;;;;;;;3.08;100.00;103474.94;10207543;28;20401;-64
2022/04/16 04:11:48;;;;;;;7.25;3.00;;;;;;;3.02;100.00;103491.13;10184389;28;20115;-65
2022/04/16 04:16:45;;;;;;;6.22;2.67;;;;;;;3.01;100.00;103502.97;10193838;28;20071;-65
2022/04/16 04:21:41;;;;;;;6.55;2.65;;;;;;;3.04;100.00;103489.91;10189644;28;20049;-63
2022/04/16 04:26:38;;;;;;;6.28;2.50;;;;;;;3.01;100.00;103484.88;10196486;28;20142;-63
2022/04/16 04:31:34;;;;;;;5.35;2.13;;;;;;;2.98;100.00;103488.00;10187430;28;20467;-63
2022/04/16 04:36:31;;;;;;;5.65;2.80;;;;;;;2.92;100.00;103486.09;10226536;28;20132;-64
2022/04/16 04:41:27;;;;;;;6.28;2.20;;;;;;;2.91;100.00;103487.13;10197819;28;20069;-64
2022/04/16 04:46:23;;;;;;;6.25;2.28;;;;;;;2.82;100.00;103485.63;10210762;28;20483;-64
2022/04/16 04:51:20;;;;;;;6.68;2.28;;;;;;;2.87;100.00;103491.25;10186057;28;20046;-63
2022/04/16 04:56:16;;;;;;;4.68;2.20;;;;;;;2.91;100.00;103506.03;10209758;28;20647;-63
2022/04/16 05:01:13;;;;;;;6.18;2.15;;;;;;;2.91;100.00;103509.56;10197982;28;20137;-62
2022/04/16 05:06:09;;;;;;;5.15;2.35;;;;;;;2.92;100.00;103518.50;10218950;28;20112;-64
2022/04/16 05:11:06;;;;;;;6.70;2.53;;;;;;;2.95;100.00;103526.25;10210876;28;20548;-63
2022/04/16 05:16:04;;;;;;;6.20;2.60;;;;;;;3.03;100.00;103527.94;10216149;28;20076;-64
2022/04/16 05:21:01;;;;;;;6.93;3.25;;;;;;;3.08;100.00;103537.13;10251768;28;20456;-64
2022/04/16 05:25:58;;;;;;;6.25;2.50;;;;;;;3.13;100.00;103540.09;10211763;28;20138;-62
2022/04/16 05:30:57;;;;;;;6.22;2.33;;;;;;;3.16;100.00;103542.38;10227956;28;20046;-62
2022/04/16 05:35:54;;;;;;;4.68;2.00;;;;;;;3.23;100.00;103544.31;10198866;28;20100;-65
2022/04/16 05:40:51;;;;;;;8.30;2.55;;;;;;;3.23;100.00;103547.00;10209226;28;20049;-65
2022/04/16 05:45:47;;;;;;;5.68;2.55;;;;;;;3.36;100.00;103549.78;10209184;28;20053;-64
2022/04/16 05:50:44;;;;;;;8.05;2.35;;;;;;;3.48;100.00;103548.19;10180546;28;20065;-64
2022/04/16 05:55:47;;;;;;;4.97;2.17;;;;;;;3.59;100.00;103550.28;10189842;28;20066;-65
2022/04/16 06:00:44;;;;;;;4.82;1.83;;;;;;;3.62;100.00;103551.78;10190283;28;20626;-65
2022/04/16 06:05:40;;;;;;;7.28;1.90;;;;;;;3.79;100.00;103549.56;10185500;28;20096;-64
2022/04/16 06:10:37;;;;;;;6.53;1.83;;;;;;;3.83;100.00;103545.41;10179807;28;20049;-65
2022/04/16 06:15:43;;;;;;;5.15;2.13;;;;;;;3.99;100.00;103550.47;10173974;28;20472;-65
2022/04/16 06:20:40;;;;;;;5.00;1.67;;;;;;;4.15;100.00;103554.63;10185275;28;20463;-65
2022/04/16 06:25:36;;;;;;;4.25;1.30;;;;;;;4.33;100.00;103562.19;10192108;28;20069;-65
2022/04/16 06:30:33;;;;;;;5.82;1.65;;;;;;;4.36;100.00;103569.06;10194267;28;20091;-62
2022/04/16 06:35:29;;;;;;;5.30;1.83;;;;;;;4.52;100.00;103565.94;10191131;28;20851;-62
2022/04/16 06:40:26;;;;;;;5.68;1.10;;;;;;;4.62;100.00;103565.56;10158279;28;20117;-63
2022/04/16 06:45:22;;;;;;;4.95;1.25;;;;;;;4.78;100.00;103565.16;10159526;28;20141;-63
2022/04/16 06:50:19;;;;;;;4.50;1.25;;;;;;;4.91;100.00;103563.47;10163322;28;20464;-64
2022/04/16 06:55:15;;;;;;;2.75;0.90;;;;;;;5.04;100.00;103566.16;10168041;28;20054;-63
2022/04/16 07:00:12;;;;;;;2.97;1.00;;;;;;;5.12;100.00;103581.38;10161508;28;20157;-64
2022/04/16 07:05:09;;;;;;;4.60;1.10;;;;;;;5.24;100.00;103568.81;10156824;28;20078;-63
2022/04/16 07:10:06;;;;;;;4.28;1.15;;;;;;;5.34;100.00;103577.38;10158779;28;20143;-63
2022/04/16 07:15:02;;;;;;;6.55;1.42;;;;;;;5.50;100.00;103578.81;10158060;28;20058;-63
2022/04/16 07:19:59;;;;;;;5.75;1.15;;;;;;;5.58;100.00;103581.25;10160946;28;20060;-63
2022/04/16 07:24:55;;;;;;;2.30;0.57;;;;;;;5.73;100.00;103577.44;10187862;28;20068;-63
2022/04/16 07:29:58;;;;;;;5.90;0.80;;;;;;;5.86;100.00;103582.84;10200309;28;20418;-64
2022/04/16 07:34:54;;;;;;;3.23;0.80;;;;;;;6.02;100.00;103587.78;10195057;28;20041;-63
2022/04/16 07:39:51;;;;;;;7.00;0.82;;;;;;;6.17;100.00;103590.22;10194352;28;20550;-63
2022/04/16 07:44:47;;;;;;;3.83;0.70;;;;;;;6.24;100.00;103584.75;10189032;28;20144;-63
2022/04/16 07:49:44;;;;;;;4.38;0.63;;;;;;;6.33;100.00;103588.88;10217979;28;20512;-63
2022/04/16 07:54:40;;;;;;;2.75;0.65;;;;;;;6.57;100.00;103600.84;10212712;28;20076;-63
2022/04/16 07:59:37;;;;;;;4.05;0.88;;;;;;;6.70;100.00;103598.00;10195708;28;20659;-63
2022/04/16 08:04:33;;;;;;;5.28;0.93;;;;;;;6.78;100.00;103594.19;10198491;28;20128;-63
2022/04/16 08:09:30;;;;;;;4.10;0.93;;;;;;;6.95;100.00;103603.47;10168631;28;20054;-64
2022/04/16 08:14:26;;;;;;;3.17;0.95;;;;;;;7.12;100.00;103598.28;10180817;28;20149;-65
2022/04/16 08:19:23;;;;;;;2.97;1.10;;;;;;;7.19;100.00;103611.81;10175813;28;20046;-65
2022/04/16 08:24:38;;;;;;;0.85;0.32;;;;;;;7.33;100.00;103621.53;10181217;28;20701;-66
2022/04/16 08:29:35;;;;;;;4.95;1.20;;;;;;;7.55;100.00;103618.38;10193998;28;20050;-66
2022/04/16 08:34:31;;;;;;;5.07;1.90;;;;;;;7.68;100.00;103610.06;10209222;28;20125;-66
2022/04/16 08:39:28;;;;;;;2.35;0.57;;;;;;;7.87;100.00;103610.88;10192737;28;20046;-65
2022/04/16 08:44:26;;;;;;;1.05;0.40;;;;;;;8.10;100.00;103615.63;10207465;28;20596;-63
2022/04/16 08:49:25;;;;;;;5.03;1.15;;;;;;;8.33;100.00;103614.88;10181372;28;20719;-63
2022/04/16 08:54:21;;;;;;;2.20;0.60;;;;;;;8.45;100.00;103620.41;10211184;28;20408;-64
2022/04/16 08:59:18;;;;;;;2.03;0.65;;;;;;;8.59;98.22;103613.66;10203274;28;20041;-64
2022/04/16 09:04:21;;;;;;;3.10;0.85;;;;;;;8.74;94.63;103609.66;10194598;28;20160;-64
2022/04/16 09:09:18;;;;;;;2.08;0.65;;;;;;;9.00;93.98;103614.66;10187414;28;20514;-64
2022/04/16 09:14:14;;;;;;;2.20;0.70;;;;;;;9.25;94.90;103610.88;10205666;28;20045;-64
2022/04/16 09:19:13;;;;;;;3.97;0.88;;;;;;;9.53;87.76;103609.31;10204375;28;20050;-62
2022/04/16 09:24:12;;;;;;;2.00;0.50;;;;;;;9.69;77.09;103608.56;10216787;28;20099;-64
2022/04/16 09:29:14;;;;;;;2.13;0.43;;;;;;;9.81;77.23;103609.34;10189378;28;20088;-64
2022/04/16 09:34:22;;;;;;;1.67;0.50;;;;;;;10.11;69.72;103614.59;10209743;28;20046;-63
2022/04/16 09:39:22;;;;;;;3.90;0.63;;;;;;;10.32;85.30;103615.84;10187653;28;20058;-63
2022/04/16 09:44:18;;;;;;;2.90;0.60;;;;;;;10.61;78.15;103618.56;10214520;28;20766;-63
2022/04/16 09:49:21;;;;;;;2.58;0.75;;;;;;;10.97;62.56;103608.19;10227760;28;20137;-63
2022/04/16 09:54:21;;;;;;;2.65;1.17;;;;;;;11.44;65.07;103607.81;10219608;28;20111;-63
2022/04/16 09:59:17;;;;;;;3.30;0.70;;;;;;;12.45;51.85;103619.41;10221222;28;20508;-63
2022/04/16 10:04:18;;;;;;;4.97;1.80;;;;;;;13.41;48.52;103607.50;10215051;28;20148;-66
2022/04/16 10:09:22;;;;;;;2.28;1.00;;;;;;;14.16;45.90;103607.28;10213085;28;20121;-64
2022/04/16 10:14:26;;;;;;;5.38;0.77;;;;;;;15.42;48.56;103599.22;10218235;28;20124;-63
2022/04/16 10:19:22;;;;;;;5.82;1.00;;;;;;;15.79;42.80;103592.50;10191752;28;20133;-63
2022/04/16 10:24:26;;;;;;;1.70;0.70;;;;;;;16.61;43.12;103587.22;10214650;28;20148;-64
2022/04/16 10:29:24;;;;;;;1.85;0.90;;;;;;;17.54;43.58;103589.06;10208731;28;20126;-64
2022/04/16 10:34:29;;;;;;;3.05;1.23;;;;;;;17.97;39.41;103578.00;10226324;28;20072;-64
2022/04/16 10:39:31;;;;;;;6.57;0.90;;;;;;;18.21;36.19;103583.47;10173466;28;20104;-63
2022/04/16 10:44:30;;;;;;;1.90;0.90;;;;;;;18.33;33.65;103586.56;10224536;28;20049;-63
2022/04/16 10:49:27;;;;;;;2.75;0.70;;;;;;;18.39;33.16;103590.09;10213489;28;20136;-64
2022/04/16 10:54:32;;;;;;;2.85;0.70;;;;;;;18.84;31.92;103587.69;10212259;28;20045;-63
2022/04/16 10:59:42;;;;;;;2.95;1.30;;;;;;;18.67;33.10;103580.75;10189924;28;20104;-64
2022/04/16 11:04:39;;;;;;;2.83;1.00;;;;;;;19.57;40.19;103586.00;10202432;28;20716;-64
2022/04/16 11:09:37;;;;;;;3.05;1.10;;;;;;;19.95;37.28;103583.78;10184655;28;20100;-63
2022/04/16 11:14:35;;;;;;;2.28;1.15;;;;;;;19.49;28.95;103583.94;10216529;28;20718;-63
2022/04/16 11:19:32;;;;;;;2.42;0.88;;;;;;;19.77;28.02;103562.53;10225874;28;20060;-63
2022/04/16 11:24:28;;;;;;;2.53;0.80;;;;;;;20.00;29.88;103565.38;10216717;28;20081;-63
2022/04/16 11:34:40;;;;;;;3.20;1.15;;;;;;;20.51;32.18;103564.09;10218794;28;20038;-63
2022/04/16 11:40:08;;;;;;;3.50;1.33;;;;;;;20.37;33.29;103564.19;10203375;28;20450;-63
2022/04/16 11:45:05;;;;;;;4.10;1.25;;;;;;;20.41;34.63;103553.28;10212334;28;20056;-63
2022/04/16 11:50:06;;;;;;;2.50;1.20;;;;;;;19.67;33.43;103549.69;10221905;28;20107;-63
2022/04/16 11:55:16;;;;;;;2.85;1.17;;;;;;;19.50;31.81;103543.97;10220448;28;20780;-63
2022/04/16 12:00:14;;;;;;;2.90;0.93;;;;;;;20.12;30.63;103543.41;10220938;28;20619;-63
2022/04/16 12:05:12;;;;;;;3.22;1.00;;;;;;;20.61;32.80;103547.22;10216249;28;20053;-63
2022/04/16 12:10:10;;;;;;;3.67;0.98;;;;;;;20.60;30.84;103551.13;10208294;28;20053;-63
2022/04/16 12:15:07;;;;;;;3.22;0.95;;;;;;;20.58;30.21;103542.28;10223975;28;20546;-63
2022/04/16 12:20:09;;;;;;;3.22;0.93;;;;;;;21.28;32.97;103532.28;10173270;28;20165;-64
2022/04/16 12:25:08;;;;;;;2.92;0.90;;;;;;;21.80;30.77;103537.94;10218997;28;20045;-64
2022/04/16 12:30:04;;;;;;;3.10;1.20;;;;;;;22.28;28.12;103533.38;10186111;28;20064;-64
2022/04/16 12:35:01;;;;;;;4.30;1.20;;;;;;;22.04;27.43;103533.84;10224370;28;20408;-64
2022/04/16 12:40:02;;;;;;;2.42;0.88;;;;;;;21.46;29.12;103530.38;10188177;28;20698;-64
2022/04/16 12:44:59;;;;;;;3.75;1.30;;;;;;;21.14;28.43;103537.13;10219226;28;20610;-64
2022/04/16 12:49:55;;;;;;;2.08;1.00;;;;;;;21.08;27.79;103533.69;10196619;28;20088;-64
2022/04/16 12:54:52;;;;;;;2.67;0.95;;;;;;;21.53;31.58;103521.53;10218884;28;20069;-64
2022/04/16 12:59:48;;;;;;;2.03;0.88;;;;;;;21.83;29.63;103523.34;10149515;28;20050;-64
2022/04/16 13:04:45;;;;;;;3.30;1.27;;;;;;;21.22;29.86;103517.69;10201747;28;20663;-64
2022/04/16 13:09:41;;;;;;;2.65;1.25;;;;;;;20.35;30.81;103516.44;10182691;28;20156;-64
2022/04/16 13:14:43;;;;;;;3.25;1.10;;;;;;;20.46;36.14;103497.56;10194183;28;20141;-64
2022/04/16 13:19:41;;;;;;;3.50;1.50;;;;;;;20.70;29.63;103492.47;10182839;28;20448;-64
2022/04/16 13:24:37;;;;;;;3.75;1.77;;;;;;;20.63;32.48;103489.31;10217676;28;20085;-64
2022/04/16 13:29:35;;;;;;;4.13;1.50;;;;;;;20.57;31.65;103485.06;10190672;28;20748;-64
2022/04/16 13:34:32;;;;;;;3.47;1.45;;;;;;;20.54;32.25;103474.56;10228086;28;20041;-64
2022/04/16 13:44:44;;;;;;;7.05;1.40;;;;;;;20.70;32.79;103464.69;10210946;28;20041;-64
2022/04/16 13:49:41;;;;;;;3.60;1.67;;;;;;;20.81;31.55;103463.22;10188214;28;20133;-64
2022/04/16 13:54:38;;;;;;;4.45;1.50;;;;;;;20.71;30.41;103457.97;10217236;28;20136;-64
2022/04/16 13:59:36;;;;;;;3.92;1.50;;;;;;;21.01;32.09;103461.00;10176141;28;20050;-64
2022/04/16 14:09:48;;;;;;;4.05;1.77;;;;;;;21.07;33.67;103443.00;10176363;28;20073;-64
2022/04/16 14:14:44;;;;;;;3.83;1.85;;;;;;;20.84;29.00;103438.72;10216049;28;20571;-64
2022/04/16 14:19:42;;;;;;;9.82;1.85;;;;;;;20.83;33.24;103442.63;10188136;28;20089;-64
2022/04/16 14:24:38;;;;;;;4.53;1.95;;;;;;;20.62;29.31;103445.19;10210139;28;20076;-64
2022/04/16 14:29:35;;;;;;;4.63;2.00;;;;;;;20.72;30.57;103429.00;10186649;28;20145;-64
2022/04/16 14:34:31;;;;;;;5.53;1.83;;;;;;;20.42;30.08;103432.63;10217516;28;20614;-64
2022/04/16 14:39:28;;;;;;;4.25;2.03;;;;;;;19.83;32.71;103422.50;10199004;28;20136;-64
2022/04/16 14:44:25;;;;;;;6.45;2.08;;;;;;;19.70;36.21;103417.81;10217647;28;20508;-64
2022/04/16 14:49:21;;;;;;;3.50;1.98;;;;;;;19.29;34.09;103413.22;10192331;28;20054;-64
2022/04/16 14:54:19;;;;;;;3.38;1.65;;;;;;;19.14;39.24;103409.63;10216795;28;20088;-64
2022/04/16 14:59:16;;;;;;;4.72;2.05;;;;;;;19.25;35.79;103406.66;10187460;28;20096;-65
2022/04/16 15:04:12;;;;;;;4.05;1.98;;;;;;;19.66;34.74;103402.91;10215470;28;20153;-64
2022/04/16 15:09:08;;;;;;;4.63;2.03;;;;;;;19.92;34.59;103398.38;10186713;28;20488;-64
2022/04/16 15:14:05;;;;;;;6.28;2.03;;;;;;;20.44;34.91;103391.44;10216605;28;20124;-64
2022/04/16 15:19:01;;;;;;;4.50;2.20;;;;;;;20.66;33.70;103393.38;10170039;28;20134;-64
2022/04/16 15:23:58;;;;;;;3.58;1.83;;;;;;;20.41;33.40;103392.91;10208144;28;20053;-64
2022/04/16 15:28:54;;;;;;;3.40;1.70;;;;;;;20.71;31.69;103391.25;10192128;28;20138;-64
2022/04/16 15:33:54;;;;;;;5.18;2.40;;;;;;;21.11;33.56;103399.50;10218135;28;20061;-64
2022/04/16 15:38:50;;;;;;;5.20;2.58;;;;;;;21.55;30.32;103380.88;10185487;28;20136;-64
2022/04/16 15:43:47;;;;;;;4.90;2.40;;;;;;;21.70;31.40;103385.13;10199569;28;20486;-64
2022/04/16 15:48:43;;;;;;;4.85;2.78;;;;;;;21.81;33.25;103372.47;10184245;28;20701;-63
2022/04/16 15:53:42;;;;;;;5.10;2.53;;;;;;;21.79;33.06;103368.41;10216158;28;20049;-64
2022/04/16 15:58:39;;;;;;;5.97;2.47;;;;;;;21.62;30.94;103358.94;10186837;28;20081;-64
2022/04/16 16:03:38;;;;;;;4.65;2.63;;;;;;;21.64;33.85;103355.81;10208685;28;20045;-64
2022/04/16 16:08:35;;;;;;;5.82;2.70;;;;;;;21.75;33.20;103359.91;10217381;28;20045;-64
2022/04/16 16:13:31;;;;;;;5.07;2.47;;;;;;;22.00;32.29;103347.06;10208684;28;20084;-64
2022/04/16 16:18:28;;;;;;;5.22;3.00;;;;;;;22.04;31.98;103358.34;10224890;28;20141;-64
2022/04/16 16:23:24;;;;;;;6.03;3.05;;;;;;;21.81;30.90;103363.31;10211149;28;20507;-64
2022/04/16 16:28:21;;;;;;;6.72;3.45;;;;;;;22.47;31.00;103362.94;10194854;28;20397;-64
2022/04/16 16:33:17;;;;;;;5.72;3.50;;;;;;;22.55;30.79;103366.84;10206653;28;20068;-64
2022/04/16 16:38:15;;;;;;;7.00;3.40;;;;;;;22.73;30.67;103367.56;10200731;28;20038;-64
2022/04/16 16:43:12;;;;;;;7.28;3.35;;;;;;;22.88;30.23;103365.00;10197813;28;20073;-65
2022/04/16 16:48:09;;;;;;;5.68;3.13;;;;;;;23.02;31.92;103358.34;10223568;28;20138;-64
2022/04/16 16:53:05;;;;;;;6.80;3.30;;;;;;;22.88;29.37;103351.06;10205399;28;20080;-64
2022/04/16 16:58:02;;;;;;;7.07;3.40;;;;;;;23.01;28.06;103356.72;10216473;28;20460;-65
2022/04/16 17:08:13;;;;;;;5.82;3.33;;;;;;;23.25;29.00;103345.69;10218433;28;20062;-64
2022/04/16 17:13:10;;;;;;;7.72;3.40;;;;;;;22.42;27.75;103347.22;10205959;28;20121;-64
2022/04/16 17:23:21;;;;;;;10.27;4.70;;;;;;;20.17;31.60;103348.88;10210939;28;20045;-64
2022/04/16 17:28:18;;;;;;;8.07;4.68;;;;;;;19.36;33.44;103347.03;10201102;28;20053;-64
2022/04/16 17:33:15;;;;;;;8.45;5.13;;;;;;;18.45;33.86;103345.09;10212803;28;20132;-64
2022/04/16 17:38:11;;;;;;;11.25;6.53;;;;;;;18.00;34.87;103353.19;10198457;28;20092;-64
2022/04/16 17:43:08;;;;;;;22.67;12.15;;;;;;;17.52;36.12;103358.94;10207713;28;20128;-64
2022/04/16 17:48:05;;;;;;;22.52;12.32;;;;;;;17.07;37.71;103355.75;10229370;28;20049;-64
2022/04/16 17:53:03;;;;;;;21.33;12.65;;;;;;;16.84;39.02;103361.03;10222238;28;20148;-64
2022/04/16 17:58:00;;;;;;;15.90;8.25;;;;;;;16.53;39.54;103364.16;10228984;28;20115;-64
2022/04/16 18:02:57;;;;;;;12.88;7.28;;;;;;;16.16;39.00;103371.19;10222198;28;20468;-64
2022/04/16 18:07:54;;;;;;;12.38;7.90;;;;;;;15.87;40.05;103371.16;10225268;28;20057;-65
2022/04/16 18:12:50;;;;;;;14.02;8.75;;;;;;;15.65;40.63;103368.84;10207282;28;20596;-64
2022/04/16 18:17:46;;;;;;;13.75;9.07;;;;;;;15.33;41.04;103375.69;10206753;28;20462;-64
2022/04/16 18:22:44;;;;;;;12.38;8.10;;;;;;;15.16;41.74;103372.50;10205394;28;20141;-64
2022/04/16 18:27:42;;;;;;;13.32;8.32;;;;;;;14.77;43.51;103377.94;10187801;28;20061;-64
2022/04/16 18:32:39;;;;;;;10.10;7.15;;;;;;;14.56;42.87;103388.19;10206005;28;20136;-64
2022/04/16 18:37:37;;;;;;;11.32;6.95;;;;;;;14.41;44.30;103386.25;10209079;28;20100;-64
2022/04/16 18:42:34;;;;;;;10.65;6.72;;;;;;;14.15;47.14;103390.97;10209441;28;20053;-63
2022/04/16 18:47:31;;;;;;;13.75;7.63;;;;;;;14.06;47.88;103397.06;10226851;28;20077;-65
2022/04/16 18:52:32;;;;;;;14.55;9.82;;;;;;;13.79;47.68;103408.34;10210675;28;20050;-66
2022/04/16 18:57:28;;;;;;;19.35;10.52;;;;;;;13.64;49.29;103411.06;10226566;28;20049;-64
2022/04/16 19:07:40;;;;;;;16.90;11.20;;;;;;;13.23;50.15;103425.50;10146916;28;20580;-65
2022/04/16 19:12:37;;;;;;;18.00;11.98;;;;;;;13.17;53.29;103418.34;10201601;28;20683;-65
2022/04/16 19:17:33;;;;;;;17.13;11.73;;;;;;;12.95;50.58;103425.94;10210065;28;20089;-65
2022/04/16 19:22:29;;;;;;;20.02;12.70;;;;;;;12.80;52.91;103430.25;10194829;28;20051;-64
2022/04/16 19:27:26;;;;;;;20.50;12.45;;;;;;;12.67;54.42;103419.78;10200752;28;20128;-65
2022/04/16 19:32:22;;;;;;;20.30;12.45;;;;;;;12.48;53.84;103429.53;10224630;28;20103;-65
2022/04/16 19:37:19;;;;;;;20.60;13.68;;;;;;;12.07;52.95;103421.00;10187144;28;20121;-65
2022/04/16 19:42:16;;;;;;;19.55;13.15;;;;;;;12.10;56.95;103417.75;10200859;28;20057;-65
2022/04/16 19:47:13;;;;;;;22.67;13.68;;;;;;;11.96;59.25;103420.94;10224688;28;20110;-64
2022/04/16 19:52:10;;;;;;;22.95;13.80;;;;;;;11.74;60.40;103411.91;10215595;28;20555;-64
2022/04/16 19:57:07;;;;;;;28.67;18.35;;;;;;;11.72;62.59;103414.09;10224455;28;20115;-65
2022/04/16 20:02:03;;;;;;;28.45;18.48;;;;;;;11.54;58.79;103413.38;10204469;28;20781;-65
2022/04/16 20:07:00;;;;;;;27.80;18.42;;;;;;;11.49;65.86;103413.34;10213332;28;20128;-65
2022/04/16 20:11:56;;;;;;;24.60;15.13;;;;;;;11.29;64.08;103418.59;10196113;28;20161;-65
2022/04/16 20:16:53;;;;;;;22.73;14.38;;;;;;;11.15;65.21;103427.19;10176633;28;20602;-64
2022/04/16 20:21:52;;;;;;;24.52;14.98;;;;;;;11.05;67.88;103410.66;10172504;28;20120;-65
2022/04/16 20:26:49;;;;;;;19.13;13.90;;;;;;;10.91;73.15;103415.69;10190331;28;20234;-64
2022/04/16 20:31:45;;;;;;;22.50;14.10;;;;;;;10.74;73.33;103407.53;10197108;28;20076;-64
2022/04/16 20:36:42;;;;;;;27.02;15.07;;;;;;;10.57;70.70;103408.66;10196300;28;20108;-65
2022/04/16 20:46:53;;;;;;;22.13;14.15;;;;;;;10.35;76.88;103405.84;10228678;28;20136;-65
2022/04/16 20:57:04;;;;;;;20.63;13.35;;;;;;;10.15;76.90;103396.22;10197386;28;20080;-64
2022/04/16 21:02:01;;;;;;;20.55;13.15;;;;;;;10.03;78.08;103392.78;10198101;28;20124;-65
2022/04/16 21:06:58;;;;;;;22.75;13.10;;;;;;;9.86;81.75;103382.66;10212226;28;20049;-64
2022/04/16 21:11:54;;;;;;;25.30;14.77;;;;;;;9.77;83.42;103372.38;10213490;28;20133;-65
2022/04/16 21:16:51;;;;;;;29.20;17.40;;;;;;;9.70;85.30;103375.28;10229662;28;20608;-64
2022/04/16 21:21:47;;;;;;;33.78;18.15;;;;;;;9.60;83.35;103377.81;10217530;28;20704;-64
2022/04/16 21:26:44;;;;;;;30.67;17.17;;;;;;;9.51;87.51;103379.28;10214417;28;20129;-65
2022/04/16 21:31:40;;;;;;;28.45;16.63;;;;;;;9.43;86.92;103384.09;10205057;28;20045;-65
2022/04/16 21:36:37;;;;;;;29.88;17.50;;;;;;;9.38;87.26;103383.16;10229894;28;20096;-65
2022/04/16 21:41:33;;;;;;;26.17;16.73;;;;;;;9.22;88.20;103382.03;10202179;28;20160;-64
2022/04/16 21:46:30;;;;;;;31.55;17.88;;;;;;;9.10;90.90;103373.06;10213036;28;20500;-64
2022/04/16 21:51:26;;;;;;;28.90;19.15;;;;;;;8.97;92.63;103369.53;10199005;28;20076;-64
2022/04/16 21:56:23;;;;;;;39.97;22.67;;;;;;;8.88;92.91;103364.72;10212613;28;20125;-65
2022/04/16 22:01:54;;;;;;;36.72;23.98;;;;;;;8.71;93.02;103375.56;10205496;28;20136;-64
2022/04/16 22:06:52;;;;;;;38.90;22.73;;;;;;;8.57;93.06;103378.53;10217878;28;20112;-66
2022/04/16 22:11:50;;;;;;;34.40;21.08;;;;;;;8.39;93.86;103378.63;10199534;28;20054;-65
2022/04/16 22:16:47;;;;;;;33.92;20.00;;;;;;;8.47;97.64;103383.78;10225856;28;20080;-65
2022/04/16 22:21:44;;;;;;;26.77;16.00;;;;;;;8.31;94.07;103376.25;10203959;28;20053;-64
2022/04/16 22:26:41;;;;;;;22.13;14.45;;;;;;;8.29;93.84;103384.69;10211842;28;20519;-64
2022/04/16 22:31:39;;;;;;;22.65;13.95;;;;;;;8.26;95.03;103389.78;10197204;28;20458;-64
2022/04/16 22:40:58;;;;;;;22.80;13.00;;;;;;;8.17;99.97;103381.13;10209204;28;20077;-64
2022/04/16 22:41:52;;;;;;;22.70;12.55;;;;;;;8.06;98.55;103382.78;10204901;28;20092;-64
2022/04/16 22:46:48;;;;;;;21.98;13.23;;;;;;;7.96;94.79;103386.09;10157141;28;20093;-65
2022/04/16 22:51:45;;;;;;;22.63;14.10;;;;;;;7.88;99.22;103377.44;10195486;28;20136;-64
2022/04/16 22:56:41;;;;;;;26.63;13.27;;;;;;;7.72;95.87;103379.75;10209435;28;20129;-64
2022/04/16 23:01:38;;;;;;;25.30;13.50;;;;;;;7.66;95.97;103375.25;10201282;28;20041;-64
2022/04/16 23:06:34;;;;;;;22.48;13.20;;;;;;;7.57;99.30;103371.22;10198658;28;20054;-64
2022/04/16 23:11:31;;;;;;;22.80;12.60;;;;;;;7.57;98.98;103365.75;10198050;28;20503;-63
2022/04/16 23:16:39;;;;;;;20.38;11.52;;;;;;;7.52;97.28;103373.78;10225649;28;20131;-64
2022/04/16 23:21:35;;;;;;;21.33;11.38;;;;;;;7.41;96.90;103369.16;10185024;28;20579;-64
2022/04/16 23:26:32;;;;;;;21.20;11.38;;;;;;;7.34;100.00;103351.00;10211336;28;20096;-66
2022/04/16 23:31:28;;;;;;;16.30;9.68;;;;;;;7.33;100.00;103354.81;10199450;28;20480;-64
2022/04/16 23:36:25;;;;;;;17.75;9.10;;;;;;;7.23;100.00;103354.50;10194497;28;20058;-64